Planet Ace — 3EYF9 — position and weather

sailwx.info

Track history (hours):
 
Tides and Currents Weather Stations Pressure Air Temp Water Temp Dewpoint Dewpoint Depression Visibility Wind Speed Wind Dir Waves Ship Positions

Planet Ace

Last reported at 2016-May-02 22:33 UTC. Time now 2016-May-02 23:09 UTC.
Position N 48°57' W 005°05'.

Length 188 m; beam 28.2 m.

Type: Cargo ship. MMSI: 352168000.

Date/timePositionNaut miles runAvg speedWind from/ knotsBaromVisibWave heightAir tempDewpointWater temp
2016-May-02 22:33N 48°57' W 005°05'1716.9
2016-May-02 21:33N 48°49' W 005°27'59915.3
2016-May-01 06:24N 39°21' W 009°51'1213.3
2016-May-01 05:30N 39°09' W 009°51'1212.9
2016-May-01 04:33N 38°57' W 009°51'1312.9
2016-May-01 03:33N 38°44' W 009°52'1313.4
2016-May-01 02:33N 38°32' W 009°45'1413.4
2016-May-01 01:32N 38°18' W 009°41'1414.0
2016-May-01 00:33N 38°05' W 009°38'1414.0
2016-Apr-30 23:32N 37°51' W 009°34'1413.7
2016-Apr-30 22:33N 37°38' W 009°30'1713.5
2016-Apr-30 21:19N 37°22' W 009°25'1013.0
2016-Apr-30 20:33N 37°12' W 009°23'2912.9
2016-Apr-30 18:17N 36°45' W 009°08'17815.1
2016-Apr-30 06:28N 35°57' W 005°34'0 0.0
2016-Apr-28 18:04N 35°57' W 005°34'3 5.4
2016-Apr-28 17:33N 35°58' W 005°31'7 7.2
2016-Apr-28 16:33N 36°00' W 005°22'224 8.6
2016-Apr-27 14:33N 37°16' W 000°60'1111.2
2016-Apr-27 13:33N 37°23' W 000°49'1110.9
2016-Apr-27 12:31N 37°31' W 000°39'1010.4
2016-Apr-27 11:34N 37°38' W 000°30'1413.6
2016-Apr-27 10:34N 37°50' W 000°21'1515.2
2016-Apr-27 09:33N 38°03' W 000°10'12615.5
2016-Apr-27 01:22N 39°52' E 001°11'1315.6
2016-Apr-27 00:33N 40°03' E 001°19'1615.8
2016-Apr-26 23:33N 40°17' E 001°29'1616.0
2016-Apr-26 22:33N 40°31' E 001°38'1615.5
2016-Apr-26 21:33N 40°45' E 001°48'1615.9
2016-Apr-26 20:33N 40°59' E 001°58'1615.7
2016-Apr-26 19:33N 41°13' E 002°08'7 2.1
2016-Apr-26 16:06N 41°20' E 002°09'1 0.1
2016-Apr-26 06:20N 41°20' E 002°10'14 5.2
2016-Apr-26 03:33N 41°10' E 002°23'1 0.7
2016-Apr-26 02:28N 41°09' E 002°23'1 0.7
2016-Apr-26 01:28N 41°08' E 002°23'1 0.8
2016-Apr-26 00:34N 41°08' E 002°23'1 0.9
2016-Apr-25 23:18N 41°07' E 002°23'1 1.1
2016-Apr-25 22:33N 41°06' E 002°23'1 1.1
2016-Apr-25 21:34N 41°05' E 002°23'1 1.2
2016-Apr-25 20:33N 41°03' E 002°23'1 1.3
2016-Apr-25 19:33N 41°02' E 002°22'2 1.5
2016-Apr-25 18:33N 41°01' E 002°21'2 1.8
2016-Apr-25 17:33N 40°59' E 002°20'2 1.7
2016-Apr-25 16:33N 40°58' E 002°20'3 2.6
2016-Apr-25 15:34N 40°59' E 002°17'13 3.7
2016-Apr-25 12:10N 41°09' E 002°06'3 1.6
2016-Apr-25 10:06N 41°07' E 002°10'1 1.6
2016-Apr-25 09:31N 41°07' E 002°11'1 1.6
2016-Apr-25 08:33N 41°06' E 002°13'2 1.6
2016-Apr-25 07:32N 41°06' E 002°15'3 3.5
2016-Apr-25 06:33N 41°03' E 002°16'2 2.0
2016-Apr-25 05:33N 41°02' E 002°13'2 1.6
2016-Apr-25 04:33N 41°03' E 002°15'2 1.8
2016-Apr-25 03:33N 41°04' E 002°17'2 1.9
2016-Apr-25 02:33N 41°04' E 002°20'2 1.9
2016-Apr-25 01:33N 41°04' E 002°22'1 1.0
2016-Apr-25 00:33N 41°05' E 002°22'8 7.1
2016-Apr-24 23:29N 41°11' E 002°15'2 1.9
2016-Apr-24 22:21N 41°10' E 002°18'2 2.1
2016-Apr-24 21:30N 41°10' E 002°20'2 1.9
2016-Apr-24 20:33N 41°10' E 002°22'6 4.7
2016-Apr-24 19:17N 41°09' E 002°30'1215.9
2016-Apr-24 18:33N 41°03' E 002°44'1515.3
2016-Apr-24 17:34N 40°56' E 003°02'1515.0
2016-Apr-24 16:33N 40°48' E 003°18'27513.8
2016-Apr-23 20:33N 38°37' E 008°33'18613.2
2016-Apr-23 06:29N 37°07' E 011°59'1414.9
2016-Apr-23 05:33N 37°01' E 012°14'1515.1
2016-Apr-23 04:34N 36°56' E 012°32'2115.0
2016-Apr-23 03:10N 36°49' E 012°57'915.2
2016-Apr-23 02:33N 36°46' E 013°08'1515.0
2016-Apr-23 01:33N 36°40' E 013°25'1515.0
2016-Apr-23 00:33N 36°36' E 013°43'1515.2
2016-Apr-22 23:33N 36°31' E 014°01'1515.4
2016-Apr-22 22:33N 36°26' E 014°19'  
Track history (hours):
 
Tides and Currents Weather Stations Pressure Air Temp Water Temp Dewpoint Dewpoint Depression Visibility Wind Speed Wind Dir Waves Ship Positions

Planet Ace

Last reported at 2016-May-02 22:33 UTC. Time now 2016-May-02 23:09 UTC.
Position N 48°57' W 005°05'.

Length 188 m; beam 28.2 m.

Type: Cargo ship. MMSI: 352168000.

Date/timePositionNaut miles runAvg speedWind from/ knotsBaromVisibWave heightAir tempDewpointWater temp
2016-May-02 22:33N 48°57' W 005°05'1716.9
2016-May-02 21:33N 48°49' W 005°27'59915.3
2016-May-01 06:24N 39°21' W 009°51'1213.3
2016-May-01 05:30N 39°09' W 009°51'1212.9
2016-May-01 04:33N 38°57' W 009°51'1312.9
2016-May-01 03:33N 38°44' W 009°52'1313.4
2016-May-01 02:33N 38°32' W 009°45'1413.4
2016-May-01 01:32N 38°18' W 009°41'1414.0
2016-May-01 00:33N 38°05' W 009°38'1414.0
2016-Apr-30 23:32N 37°51' W 009°34'1413.7
2016-Apr-30 22:33N 37°38' W 009°30'1713.5
2016-Apr-30 21:19N 37°22' W 009°25'1013.0
2016-Apr-30 20:33N 37°12' W 009°23'2912.9
2016-Apr-30 18:17N 36°45' W 009°08'17815.1
2016-Apr-30 06:28N 35°57' W 005°34'0 0.0
2016-Apr-28 18:04N 35°57' W 005°34'3 5.4
2016-Apr-28 17:33N 35°58' W 005°31'7 7.2
2016-Apr-28 16:33N 36°00' W 005°22'224 8.6
2016-Apr-27 14:33N 37°16' W 000°60'1111.2
2016-Apr-27 13:33N 37°23' W 000°49'1110.9
2016-Apr-27 12:31N 37°31' W 000°39'1010.4
2016-Apr-27 11:34N 37°38' W 000°30'1413.6
2016-Apr-27 10:34N 37°50' W 000°21'1515.2
2016-Apr-27 09:33N 38°03' W 000°10'12615.5
2016-Apr-27 01:22N 39°52' E 001°11'1315.6
2016-Apr-27 00:33N 40°03' E 001°19'1615.8
2016-Apr-26 23:33N 40°17' E 001°29'1616.0
2016-Apr-26 22:33N 40°31' E 001°38'1615.5
2016-Apr-26 21:33N 40°45' E 001°48'1615.9
2016-Apr-26 20:33N 40°59' E 001°58'1615.7
2016-Apr-26 19:33N 41°13' E 002°08'7 2.1
2016-Apr-26 16:06N 41°20' E 002°09'1 0.1
2016-Apr-26 06:20N 41°20' E 002°10'14 5.2
2016-Apr-26 03:33N 41°10' E 002°23'1 0.7
2016-Apr-26 02:28N 41°09' E 002°23'1 0.7
2016-Apr-26 01:28N 41°08' E 002°23'1 0.8
2016-Apr-26 00:34N 41°08' E 002°23'1 0.9
2016-Apr-25 23:18N 41°07' E 002°23'1 1.1
2016-Apr-25 22:33N 41°06' E 002°23'1 1.1
2016-Apr-25 21:34N 41°05' E 002°23'1 1.2
2016-Apr-25 20:33N 41°03' E 002°23'1 1.3
2016-Apr-25 19:33N 41°02' E 002°22'2 1.5
2016-Apr-25 18:33N 41°01' E 002°21'2 1.8
2016-Apr-25 17:33N 40°59' E 002°20'2 1.7
2016-Apr-25 16:33N 40°58' E 002°20'3 2.6
2016-Apr-25 15:34N 40°59' E 002°17'13 3.7
2016-Apr-25 12:10N 41°09' E 002°06'3 1.6
2016-Apr-25 10:06N 41°07' E 002°10'1 1.6
2016-Apr-25 09:31N 41°07' E 002°11'1 1.6
2016-Apr-25 08:33N 41°06' E 002°13'2 1.6
2016-Apr-25 07:32N 41°06' E 002°15'3 3.5
2016-Apr-25 06:33N 41°03' E 002°16'2 2.0
2016-Apr-25 05:33N 41°02' E 002°13'2 1.6
2016-Apr-25 04:33N 41°03' E 002°15'2 1.8
2016-Apr-25 03:33N 41°04' E 002°17'2 1.9
2016-Apr-25 02:33N 41°04' E 002°20'2 1.9
2016-Apr-25 01:33N 41°04' E 002°22'1 1.0
2016-Apr-25 00:33N 41°05' E 002°22'8 7.1
2016-Apr-24 23:29N 41°11' E 002°15'2 1.9
2016-Apr-24 22:21N 41°10' E 002°18'2 2.1
2016-Apr-24 21:30N 41°10' E 002°20'2 1.9
2016-Apr-24 20:33N 41°10' E 002°22'6 4.7
2016-Apr-24 19:17N 41°09' E 002°30'1215.9
2016-Apr-24 18:33N 41°03' E 002°44'1515.3
2016-Apr-24 17:34N 40°56' E 003°02'1515.0
2016-Apr-24 16:33N 40°48' E 003°18'27513.8
2016-Apr-23 20:33N 38°37' E 008°33'18613.2
2016-Apr-23 06:29N 37°07' E 011°59'1414.9
2016-Apr-23 05:33N 37°01' E 012°14'1515.1
2016-Apr-23 04:34N 36°56' E 012°32'2115.0
2016-Apr-23 03:10N 36°49' E 012°57'915.2
2016-Apr-23 02:33N 36°46' E 013°08'1515.0
2016-Apr-23 01:33N 36°40' E 013°25'1515.0
2016-Apr-23 00:33N 36°36' E 013°43'1515.2
2016-Apr-22 23:33N 36°31' E 014°01'1515.4
2016-Apr-22 22:33N 36°26' E 014°19'  

Dump ship's entire track history